Latest Weather Observations for Kununurra Airport

IDD60801

Issued at 5:01 am CST Wednesday 29 July 2015 (issued every 30 minutes, with the page automatically refreshed every 10 minutes)

About weather observations | Map of weather stations | Latest weather observations for NT | Other Formats
Station Details ID: 002056 Name: KUNUNURRA AERO Lat: -15.78 Lon: 128.71 Height: 44.0 m
Data from the previous 72 hours. | See also: Recent months at Kununurra Airport
Date/Time
CST
Temp
°C
App
Temp
°C
Dew
Point
Rel
Hum
%
Delta-T
°C
Wind Press
QNH
hPa
Press
MSL
hPa
Rain
since 9 am
mm
Dir
 
Spd
km/h
Gust
km/h
Spd
kts
Gust
kts
29/05:00am 19.9 16.9 4.3 35 7.5 SSE 9 13 5 7 1019.7 1019.5 0.0
29/04:30am 19.5 16.6 4.5 37 7.2 S 9 11 5 6 1019.6 1019.4 0.0
29/04:00am 19.1 16.1 4.2 37 7.1 SW 9 11 5 6 1019.6 1019.4 0.0
29/03:30am 20.1 17.5 4.3 35 7.6 SSW 7 11 4 6 1019.8 1019.6 0.0
29/03:00am 20.6 17.6 4.2 34 7.9 S 9 13 5 7 1019.9 1019.7 0.0
29/02:30am 20.8 17.8 3.9 33 8.1 S 9 11 5 6 1020.2 1020.0 0.0
29/02:00am 20.1 17.2 4.6 36 7.5 SSW 9 11 5 6 1020.3 1020.1 0.0
29/01:30am 22.9 18.8 2.4 26 9.7 SSE 13 19 7 10 1020.3 1020.1 0.0
29/01:00am 23.1 19.1 3.1 27 9.6 SE 13 20 7 11 1020.3 1020.1 0.0
29/12:30am 23.5 19.5 2.8 26 9.9 SE 13 19 7 10 1020.3 1020.1 0.0
29/12:00am 23.9 19.5 2.6 25 10.2 SE 15 20 8 11 1020.2 1020.0 0.0
 
Date/Time
CST
Temp
°C
App
Temp
°C
Dew
Point
Rel
Hum
%
Delta-T
°C
Wind Press
QNH
hPa
Press
MSL
hPa
Rain
since 9 am
mm
Dir
 
Spd
km/h
Gust
km/h
Spd
kts
Gust
kts
28/11:30pm 24.7 20.3 2.7 24 10.6 SE 15 22 8 12 1020.4 1020.2 0.0
28/11:00pm 25.3 20.5 2.5 22 11.0 SE 17 24 9 13 1020.5 1020.3 0.0
28/10:30pm 25.9 20.5 2.6 22 11.3 SE 20 28 11 15 1020.5 1020.3 0.0
28/10:00pm 25.7 20.5 2.2 21 11.3 SE 19 26 10 14 1020.5 1020.3 0.0
28/09:30pm 23.7 20.4 4.8 29 9.4 ESE 11 17 6 9 1020.3 1020.1 0.0
28/09:00pm 24.4 22.2 6.3 31 9.3 SE 7 17 4 9 1020.1 1019.9 0.0
28/08:30pm 25.8 22.7 5.7 27 10.3 SE 11 15 6 8 1019.6 1019.4 0.0
28/08:00pm 26.7 22.6 4.5 24 11.2 ESE 15 20 8 11 1019.1 1018.9 0.0
28/07:30pm 26.6 23.0 5.0 25 11.0 ESE 13 15 7 8 1018.6 1018.4 0.0
28/07:00pm 27.8 23.8 4.7 23 11.8 SE 15 20 8 11 1018.1 1018.0 0.0
28/06:30pm 27.9 24.5 5.8 24 11.5 ESE 13 17 7 9 1017.8 1017.7 0.0
28/06:00pm 29.3 25.4 5.3 22 12.5 SE 15 22 8 12 1017.6 1017.5 0.0
28/05:30pm 29.8 24.9 5.0 20 12.9 SE 20 28 11 15 1017.4 1017.3 0.0
28/05:00pm 29.9 25.1 4.5 20 13.1 SE 19 26 10 14 1017.3 1017.2 0.0
28/04:30pm 30.5 26.1 4.7 19 13.4 SSE 17 28 9 15 1017.3 1017.2 0.0
28/04:00pm 30.3 25.4 4.3 19 13.4 SE 19 24 10 13 1017.4 1017.3 0.0
28/03:30pm 29.9 24.7 3.8 19 13.3 ESE 20 30 11 16 1017.7 1017.6 0.0
28/03:00pm 29.5 24.2 2.9 18 13.3 SSE 20 28 11 15 1018.1 1018.0 0.0
28/02:30pm 29.1 23.8 3.2 19 13.0 SE 20 28 11 15 1018.6 1018.4 0.0
28/02:00pm 29.0 23.7 2.9 18 13.0 SSE 20 32 11 17 1019.2 1019.0 0.0
28/01:30pm 28.1 22.8 3.2 20 12.4 SE 20 30 11 16 1019.9 1019.7 0.0
28/01:00pm 28.0 22.3 3.0 20 12.4 SSE 22 33 12 18 1020.5 1020.3 0.0
28/12:30pm 27.3 21.5 2.2 19 12.2 SSE 22 30 12 16 1021.0 1020.8 0.0
28/12:00pm 26.8 21.4 2.6 21 11.8 SSE 20 30 11 16 1021.6 1021.4 0.0
28/11:30am 25.5 19.7 2.1 22 11.2 SE 22 32 12 17 1022.1 1021.9 0.0
28/11:00am 25.4 20.0 2.3 22 11.1 SE 20 33 11 18 1022.4 1022.2 0.0
28/10:30am 24.9 19.5 2.7 23 10.7 SE 20 32 11 17 1022.9 1022.7 0.0
28/10:00am 23.8 18.4 2.7 25 10.1 ESE 20 32 11 17 1022.9 1022.7 0.0
28/09:30am 23.6 17.4 2.3 24 10.1 SE 24 39 13 21 1022.8 1022.6 0.0
28/09:00am 22.9 16.7 2.4 26 9.7 SE 24 32 13 17 1022.7 1022.5 0.0
28/08:30am 22.8 17.5 2.9 27 9.5 SE 20 32 11 17 1022.5 1022.3 0.0
28/08:00am 22.3 16.6 2.6 27 9.3 SE 22 32 12 17 1022.1 1021.9 0.0
28/07:30am 22.0 16.8 3.4 29 8.9 SE 20 30 11 16 1021.5 1021.3 0.0
28/07:00am 22.3 17.1 3.3 28 9.1 SE 20 35 11 19 1020.8 1020.6 0.0
28/06:30am 23.0 16.2 2.9 26 9.6 SE 28 39 15 21 1020.3 1020.1 0.0
28/06:00am 23.0 17.0 3.3 27 9.5 ESE 24 33 13 18 1020.0 1019.8 0.0
28/05:30am 23.0 17.1 3.9 28 9.3 ESE 24 32 13 17 1019.8 1019.6 0.0
28/05:00am 23.5 16.8 3.5 27 9.7 ESE 28 43 15 23 1019.6 1019.4 0.0
28/04:38am 24.0 17.2 3.1 25 10.1 ESE 28 46 15 25 1019.5 1019.3 0.0
28/04:30am 23.6 17.7 3.7 27 9.7 ESE 24 37 13 20 1019.6 1019.4 0.0
28/04:00am 24.3 18.0 3.7 26 10.1 ESE 26 35 14 19 1019.6 1019.4 0.0
28/03:30am 24.6 19.1 3.9 26 10.2 ESE 22 37 12 20 1019.6 1019.4 0.0
28/03:02am 25.3 18.6 3.9 25 10.6 ESE 28 48 15 26 1019.7 1019.5 0.0
28/03:00am 25.0 19.2 4.3 26 10.3 ESE 24 33 13 18 1019.8 1019.6 0.0
28/02:30am 25.3 19.7 5.2 27 10.2 ESE 24 33 13 18 1019.7 1019.5 0.0
28/02:00am 25.8 19.4 5.4 27 10.4 SE 28 39 15 21 1019.9 1019.7 0.0
28/01:30am 26.3 20.7 5.4 26 10.7 SE 24 33 13 18 1019.8 1019.6 0.0
28/01:00am 26.8 21.3 5.7 26 10.9 SE 24 35 13 19 1019.8 1019.6 0.0
28/12:30am 27.3 21.4 5.7 25 11.2 SE 26 41 14 22 1019.7 1019.5 0.0
28/12:00am 27.4 22.0 6.4 26 11.0 SE 24 39 13 21 1019.8 1019.6 0.0
 
Date/Time
CST
Temp
°C
App
Temp
°C
Dew
Point
Rel
Hum
%
Delta-T
°C
Wind Press
QNH
hPa
Press
MSL
hPa
Rain
since 9 am
mm
Dir
 
Spd
km/h
Gust
km/h
Spd
kts
Gust
kts
27/11:30pm 27.8 22.9 6.8 26 11.1 SE 22 35 12 19 1019.7 1019.5 0.0
27/11:00pm 27.8 23.5 7.1 27 11.0 SE 19 30 10 16 1019.6 1019.4 0.0
27/10:30pm 28.5 24.1 6.6 25 11.6 SE 19 28 10 15 1019.3 1019.1 0.0
27/10:00pm 28.6 24.7 7.1 25 11.5 SE 17 24 9 13 1019.1 1018.9 0.0
27/09:30pm 29.5 25.0 6.3 23 12.3 SE 19 28 10 15 1019.0 1018.8 0.0
27/09:00pm 28.4 25.1 7.9 27 11.1 ESE 15 17 8 9 1018.6 1018.4 0.0
27/08:30pm 29.4 25.5 7.3 25 11.9 ESE 17 20 9 11 1018.1 1018.0 0.0
27/08:00pm 28.9 25.8 7.3 25 11.6 ESE 13 17 7 9 1017.8 1017.7 0.0
27/07:30pm 29.1 26.1 7.7 26 11.6 ESE 13 15 7 8 1017.3 1017.2 0.0
27/07:00pm 29.9 26.0 7.1 24 12.3 ESE 17 22 9 12 1016.9 1016.8 0.0
27/06:30pm 31.4 27.1 6.8 21 13.3 ESE 19 24 10 13 1016.5 1016.4 0.0
27/06:00pm 32.4 27.9 6.8 20 13.9 SE 20 30 11 16 1016.2 1016.1 0.0
27/05:30pm 32.9 28.4 6.9 20 14.2 SE 20 26 11 14 1015.9 1015.8 0.0
27/05:00pm 33.3 28.7 6.4 18 14.6 SE 20 28 11 15 1015.7 1015.6 0.0
27/04:30pm 34.0 28.7 5.2 16 15.4 ESE 22 32 12 17 1015.7 1015.6 0.0
27/04:00pm 34.5 29.7 5.5 16 15.6 ESE 20 33 11 18 1015.8 1015.7 0.0
27/03:30pm 34.2 29.5 6.2 17 15.2 ESE 20 30 11 16 1016.0 1015.9 0.0
27/03:00pm 34.3 28.6 5.1 16 15.6 E 24 33 13 18 1016.2 1016.1 0.0
27/02:30pm 33.5 27.5 5.5 17 15.0 ESE 26 37 14 20 1016.4 1016.3 0.0
27/02:00pm 33.4 27.6 6.2 18 14.7 E 26 35 14 19 1016.8 1016.7 0.0
27/01:30pm 33.0 28.3 6.1 18 14.5 ESE 20 28 11 15 1017.4 1017.3 0.0
27/01:00pm 33.6 28.3 6.6 18 14.7 E 24 33 13 18 1018.0 1017.9 0.0
27/12:30pm 32.7 28.1 8.3 22 13.6 E 22 33 12 18 1018.6 1018.4 0.0
27/12:00pm 32.5 27.2 8.5 22 13.4 ESE 26 33 14 18 1019.1 1018.9 0.0
27/11:30am 32.2 27.2 7.9 22 13.4 ESE 24 35 13 19 1019.6 1019.4 0.0
27/11:00am 31.1 25.8 8.3 24 12.6 ESE 26 33 14 18 1019.9 1019.7 0.0
27/10:30am 30.3 24.7 8.9 26 11.9 ESE 28 37 15 20 1020.1 1019.9 0.0
27/10:00am 29.8 24.1 8.3 26 11.8 ESE 28 43 15 23 1020.1 1019.9 0.0
27/09:30am 29.3 25.3 9.1 28 11.2 SE 20 32 11 17 1019.9 1019.7 0.0
27/09:00am 28.6 25.4 10.1 31 10.4 SE 17 20 9 11 1019.6 1019.4 0.0
27/08:30am 26.3 24.6 12.5 42 8.0 SSE 13 20 7 11 1019.3 1019.1 0.0
27/08:20am 26.0 24.0 11.4 40 8.3 ESE 13 24 7 13 1019.1 1018.9 0.0
27/08:00am 20.8 21.0 14.1 65 3.9 SE 6 9 3 5 1018.8 1018.6 0.0
27/07:30am 19.0 19.1 13.9 72 2.9 ESE 6 9 3 5 1018.2 1018.1 0.0
27/07:00am 18.1 19.3 14.8 81 1.9 WSW 2 7 1 4 1017.9 1017.8 0.0
27/06:30am 18.4 20.0 15.0 80 2.0 CALM 0 0 0 0 1017.5 1017.4 0.0
27/06:00am 18.1 19.9 15.4 84 1.6 CALM 0 0 0 0 1017.4 1017.3 0.0
27/05:30am 18.9 20.0 15.5 80 2.0 NNW 4 9 2 5 1017.2 1017.1 0.0
27/05:00am 19.2 19.8 15.7 80 2.1 WNW 7 9 4 5 1017.1 1017.0 0.0
27/04:30am 18.8 19.4 15.8 83 1.8 N 7 9 4 5 1017.1 1017.0 0.0
27/04:00am 19.3 21.3 15.9 81 2.0 CALM 0 0 0 0 1017.2 1017.1 0.0
27/03:30am 20.4 22.6 16.6 79 2.3 CALM 0 0 0 0 1017.3 1017.2 0.0
27/03:00am 20.6 22.6 16.1 75 2.7 CALM 0 0 0 0 1017.3 1017.2 0.0
27/02:30am 22.3 23.5 16.9 71 3.3 S 6 7 3 4 1017.5 1017.4 0.0
27/02:00am 21.7 23.5 17.5 77 2.6 S 4 6 2 3 1017.7 1017.6 0.0
27/01:30am 22.4 23.1 16.1 67 3.8 SE 7 15 4 8 1017.8 1017.7 0.0
27/01:00am 21.9 22.8 16.1 69 3.5 ESE 6 9 3 5 1017.9 1017.8 0.0
27/12:30am 21.5 23.3 15.6 69 3.5 CALM 0 0 0 0 1017.7 1017.6 0.0
27/12:00am 21.7 23.6 15.7 68 3.6 CALM 0 0 0 0 1017.9 1017.8 0.0
 
Date/Time
CST
Temp
°C
App
Temp
°C
Dew
Point
Rel
Hum
%
Delta-T
°C
Wind Press
QNH
hPa
Press
MSL
hPa
Rain
since 9 am
mm
Dir
 
Spd
km/h
Gust
km/h
Spd
kts
Gust
kts
26/11:30pm 23.4 24.9 15.8 62 4.6 NNE 2 7 1 4 1017.8 1017.7 0.0
26/11:00pm 23.3 24.8 15.8 62 4.5 S 2 6 1 3 1017.9 1017.8 0.0
26/10:30pm 23.5 24.1 15.9 62 4.6 NNE 7 9 4 5 1017.8 1017.7 0.0
26/10:00pm 24.9 24.4 14.9 53 6.0 NW 11 13 6 7 1017.6 1017.5 0.0
26/09:30pm 24.9 24.3 14.7 53 6.1 NNW 11 15 6 8 1017.5 1017.4 0.0
26/09:00pm 24.1 25.9 17.5 66 4.1 SSE 4 6 2 3 1017.1 1017.0 0.0
26/08:30pm 25.2 27.4 17.5 62 4.8 SSE 2 6 1 3 1016.9 1016.8 0.0
26/08:00pm 27.3 28.6 16.1 50 6.9 SSE 4 7 2 4 1016.5 1016.4 0.0
26/07:30pm 28.3 30.6 16.8 49 7.2 CALM 0 0 0 0 1016.0 1015.9 0.0
26/07:00pm 30.0 31.9 15.8 42 8.8 CALM 0 0 0 0 1015.7 1015.6 0.0
26/06:30pm 31.3 31.9 15.3 38 9.9 SSE 6 7 3 4 1015.3 1015.2 0.0
26/06:00pm 32.7 32.6 14.9 34 11.0 NE 9 11 5 6 1014.8 1014.7 0.0
26/05:30pm 33.7 33.6 13.2 29 12.4 ENE 6 9 3 5 1014.6 1014.5 0.0
26/05:00pm 33.8 31.8 11.6 26 13.1 E 13 17 7 9 1014.4 1014.3 0.0
26/04:30pm 34.5 32.1 11.5 24 13.6 ENE 15 17 8 9 1014.2 1014.1 0.0
26/04:00pm 34.2 32.7 11.8 25 13.3 ESE 11 17 6 9 1014.2 1014.1 0.0
26/03:30pm 34.5 32.0 11.0 24 13.8 E 15 20 8 11 1014.2 1014.1 0.0
26/03:00pm 35.4 32.9 10.9 22 14.4 SSE 15 20 8 11 1014.3 1014.2 0.0
26/02:30pm 35.2 33.1 11.1 23 14.2 E 13 24 7 13 1014.6 1014.5 0.0
26/02:00pm 34.3 31.4 10.9 24 13.7 ESE 17 24 9 13 1015.0 1014.9 0.0
26/01:30pm 34.1 32.7 10.8 24 13.6 NNE 9 17 5 9 1015.4 1015.3 0.0
26/01:00pm 33.6 32.2 11.0 25 13.2 S 9 13 5 7 1016.1 1016.0 0.0
26/12:30pm 32.9 31.4 10.6 25 12.9 SE 9 15 5 8 1016.7 1016.6 0.0
26/12:00pm 32.3 30.2 9.8 25 12.8 S 11 13 6 7 1017.2 1017.1 0.0
26/11:30am 31.3 29.4 9.2 25 12.4 SE 9 13 5 7 1017.8 1017.7 0.0
26/11:00am 30.0 28.3 10.0 29 11.3 SE 9 11 5 6 1018.2 1018.1 0.0
26/10:30am 28.6 27.6 10.9 33 10.1 ESE 7 9 4 5 1018.6 1018.4 0.0
26/10:00am 27.1 26.0 10.8 36 9.2 SE 7 11 4 6 1018.4 1018.3 0.0
26/09:30am 24.8 23.8 11.1 42 7.7 SE 7 11 4 6 1018.3 1018.2 0.0
26/09:00am 24.0 22.5 10.4 42 7.5 SW 9 11 5 6 1017.9 1017.8 0.0
26/08:30am 20.7 20.3 12.5 59 4.6 SE 6 7 3 4 1017.7 1017.6 0.0
26/08:00am 17.5 18.4 12.8 74 2.6 CALM 0 0 0 0 1017.3 1017.2 0.0
26/07:30am 15.1 15.9 12.5 84 1.4 CALM 0 0 0 0 1017.1 1017.0 0.0
26/07:00am 15.4 16.1 12.1 81 1.8 CALM 0 0 0 0 1016.9 1016.8 0.0

Other Formats:

Comma delimited format used in spreadsheet applications
http://www.bom.gov.au/fwo/IDD60801/IDD60801.94216.axf

JavaScript Object Notation format (JSON) in row-major order
http://www.bom.gov.au/fwo/IDD60801/IDD60801.94216.json